createdAt,value
2022-09-14T00:01:26.255Z,87.60
2022-09-14T00:04:01.714Z,85.80
2022-09-14T00:06:30.436Z,86.40
2022-09-14T00:09:00.711Z,86.80
2022-09-14T00:11:30.210Z,86.40
2022-09-14T00:13:58.488Z,86.10
2022-09-14T00:16:28.517Z,86.30
2022-09-14T00:19:00.922Z,87.00
2022-09-14T00:21:28.364Z,87.60
2022-09-14T00:23:55.183Z,87.40
2022-09-14T00:26:24.264Z,86.70
2022-09-14T00:28:54.447Z,84.80
2022-09-14T00:31:22.239Z,84.20
2022-09-14T00:33:51.066Z,84.80
2022-09-14T00:36:24.509Z,85.10
2022-09-14T00:38:52.490Z,85.30
2022-09-14T00:41:22.209Z,85.80
2022-09-14T00:43:59.722Z,85.40
2022-09-14T00:46:29.589Z,85.20
2022-09-14T00:48:59.814Z,85.30
2022-09-14T00:51:29.840Z,85.80
2022-09-14T00:53:56.947Z,86.90
2022-09-14T00:56:23.963Z,87.20
2022-09-14T00:58:53.955Z,87.00
2022-09-14T01:01:21.077Z,87.90
2022-09-14T01:03:48.144Z,88.70
2022-09-14T01:06:18.438Z,88.90
2022-09-14T01:09:05.228Z,89.90
2022-09-14T01:11:51.753Z,90.00
2022-09-14T01:14:41.868Z,89.20
2022-09-14T01:17:16.034Z,89.00
2022-09-14T01:20:07.825Z,90.20
2022-09-14T01:22:51.136Z,90.20
2022-09-14T01:25:37.611Z,90.20
2022-09-14T01:28:14.819Z,90.20
2022-09-14T01:30:44.135Z,89.50
2022-09-14T01:33:23.258Z,89.60
2022-09-14T01:35:57.904Z,89.90
2022-09-14T01:38:31.906Z,90.00
2022-09-14T01:41:02.807Z,90.90
2022-09-14T01:43:36.559Z,91.20
2022-09-14T01:46:26.743Z,91.30
2022-09-14T01:49:14.403Z,91.10
2022-09-14T01:52:13.012Z,91.20
2022-09-14T01:54:47.366Z,91.70
2022-09-14T01:57:22.549Z,91.50
2022-09-14T01:59:54.164Z,91.30
2022-09-14T02:02:48.445Z,91.90
2022-09-14T02:05:29.744Z,91.90
2022-09-14T02:07:59.459Z,91.70
2022-09-14T02:10:26.730Z,92.00
2022-09-14T02:12:54.682Z,91.80
2022-09-14T02:15:23.093Z,91.90
2022-09-14T02:17:50.204Z,92.70
2022-09-14T02:20:45.741Z,92.60
2022-09-14T02:23:12.795Z,93.40
2022-09-14T02:25:42.789Z,93.60
2022-09-14T02:28:09.632Z,93.50
2022-09-14T02:30:54.419Z,93.60
2022-09-14T02:33:49.793Z,93.10
2022-09-14T02:36:33.147Z,93.20
2022-09-14T02:39:30.958Z,93.10
2022-09-14T02:42:04.756Z,93.10
2022-09-14T02:44:44.108Z,93.30
2022-09-14T02:47:36.983Z,93.60
2022-09-14T02:50:13.503Z,93.60
2022-09-14T02:52:53.866Z,93.40
2022-09-14T02:55:23.972Z,93.30
2022-09-14T02:58:14.175Z,93.80
2022-09-14T03:00:48.022Z,93.20
2022-09-14T03:03:19.235Z,93.70
2022-09-14T03:05:47.099Z,93.40
2022-09-14T03:08:14.574Z,93.60
2022-09-14T03:10:44.938Z,93.40
2022-09-14T03:13:12.185Z,93.30
2022-09-14T03:15:39.480Z,93.50
2022-09-14T03:18:11.107Z,93.30
2022-09-14T03:20:40.573Z,93.40
2022-09-14T03:23:09.186Z,93.70
2022-09-14T03:25:39.265Z,93.80
2022-09-14T03:28:06.827Z,94.10
2022-09-14T03:30:36.872Z,94.00
2022-09-14T03:33:04.279Z,94.30
2022-09-14T03:35:32.112Z,94.00
2022-09-14T03:37:59.764Z,94.30
2022-09-14T03:40:27.890Z,94.80
2022-09-14T03:42:54.911Z,94.30
2022-09-14T03:45:22.128Z,94.30
2022-09-14T03:47:49.592Z,94.10
2022-09-14T03:50:18.691Z,94.00
2022-09-14T03:52:45.770Z,94.00
2022-09-14T03:55:14.551Z,93.90
2022-09-14T03:57:41.496Z,94.20
2022-09-14T04:00:11.120Z,94.00
2022-09-14T04:02:40.866Z,93.90
2022-09-14T04:05:08.083Z,94.10
2022-09-14T04:07:37.064Z,94.10
2022-09-14T04:10:05.748Z,93.90
2022-09-14T04:12:39.485Z,94.10
2022-09-14T04:15:07.724Z,94.20
2022-09-14T04:17:35.336Z,94.10
2022-09-14T04:20:03.487Z,94.10
2022-09-14T04:22:32.652Z,94.10
2022-09-14T04:24:59.590Z,94.10
2022-09-14T04:27:26.556Z,94.20
2022-09-14T04:29:53.527Z,94.20
2022-09-14T04:32:20.884Z,94.60
2022-09-14T04:34:49.040Z,94.50
2022-09-14T04:37:15.799Z,94.60
2022-09-14T04:39:43.591Z,95.00
2022-09-14T04:42:10.723Z,95.20
2022-09-14T04:44:37.574Z,95.20
2022-09-14T04:47:04.612Z,95.60
2022-09-14T04:49:32.465Z,95.60
2022-09-14T04:51:59.275Z,95.80
2022-09-14T04:54:26.080Z,95.90
2022-09-14T04:56:53.003Z,96.10
2022-09-14T04:59:19.864Z,96.30
2022-09-14T05:01:49.851Z,96.20
2022-09-14T05:04:17.062Z,96.30
2022-09-14T05:06:44.439Z,96.70
2022-09-14T05:09:14.599Z,96.80
2022-09-14T05:11:42.552Z,96.90
2022-09-14T05:14:11.982Z,97.20
2022-09-14T05:16:40.730Z,97.60
2022-09-14T05:19:10.812Z,97.80
2022-09-14T05:21:38.251Z,97.60
2022-09-14T05:24:14.580Z,97.80
2022-09-14T05:26:43.869Z,97.90
2022-09-14T05:29:13.998Z,97.90
2022-09-14T05:31:41.069Z,97.90
2022-09-14T05:34:10.133Z,97.90
2022-09-14T05:36:38.154Z,97.80
2022-09-14T05:39:05.877Z,97.80
2022-09-14T05:41:33.027Z,98.20
2022-09-14T05:44:00.691Z,98.00
2022-09-14T05:46:27.898Z,98.00
2022-09-14T05:48:55.907Z,97.70
2022-09-14T05:51:24.786Z,97.80
2022-09-14T05:53:53.672Z,97.50
2022-09-14T05:56:22.234Z,97.80
2022-09-14T05:58:49.330Z,97.60
2022-09-14T06:01:28.866Z,97.90
2022-09-14T06:03:57.753Z,98.00
2022-09-14T06:06:25.102Z,97.70
2022-09-14T06:08:54.202Z,97.50
2022-09-14T06:11:24.904Z,97.80
2022-09-14T06:13:51.902Z,97.80
2022-09-14T06:16:21.122Z,96.90
2022-09-14T06:18:48.874Z,96.70
2022-09-14T06:21:17.377Z,96.90
2022-09-14T06:23:44.670Z,97.10
2022-09-14T06:26:12.584Z,97.40
2022-09-14T06:28:39.825Z,97.40
2022-09-14T06:31:07.855Z,96.60
2022-09-14T06:33:38.230Z,96.70
2022-09-14T06:36:14.224Z,96.20
2022-09-14T06:38:42.688Z,96.20
2022-09-14T06:41:13.457Z,95.80
2022-09-14T06:43:41.823Z,95.40
2022-09-14T06:46:15.304Z,95.90
2022-09-14T06:48:45.747Z,95.30
2022-09-14T06:51:21.613Z,95.30
2022-09-14T06:53:49.508Z,94.90
2022-09-14T06:56:18.117Z,95.10
2022-09-14T06:58:45.052Z,94.90
2022-09-14T07:01:15.318Z,94.80
2022-09-14T07:03:44.020Z,94.50
2022-09-14T07:06:14.474Z,94.70
2022-09-14T07:08:41.781Z,94.10
2022-09-14T07:11:11.033Z,93.80
2022-09-14T07:13:38.226Z,93.60
2022-09-14T07:16:05.814Z,93.60
2022-09-14T07:18:33.093Z,92.70
2022-09-14T07:21:09.328Z,92.80
2022-09-14T07:23:38.435Z,92.00
2022-09-14T07:26:11.664Z,92.10
2022-09-14T07:28:39.565Z,92.00
2022-09-14T07:31:21.877Z,92.00
2022-09-14T07:33:53.505Z,90.80
2022-09-14T07:36:22.501Z,90.50
2022-09-14T07:38:52.667Z,89.60
2022-09-14T07:41:21.627Z,89.10
2022-09-14T07:43:52.869Z,89.50
2022-09-14T07:46:22.688Z,88.40
2022-09-14T07:48:58.732Z,89.40
2022-09-14T07:51:26.428Z,90.00
2022-09-14T07:53:53.505Z,88.80
2022-09-14T07:56:21.816Z,87.30
2022-09-14T07:58:55.430Z,86.70
2022-09-14T08:01:26.143Z,85.50
2022-09-14T08:03:53.036Z,84.90
2022-09-14T08:06:22.427Z,82.20
2022-09-14T08:08:52.840Z,83.50
2022-09-14T08:11:30.961Z,82.40
2022-09-14T08:14:01.170Z,80.20
2022-09-14T08:16:29.967Z,81.60
2022-09-14T08:18:59.510Z,79.80
2022-09-14T08:21:27.920Z,78.70
2022-09-14T08:23:55.456Z,75.90
2022-09-14T08:26:24.133Z,73.10
2022-09-14T08:28:52.187Z,74.50
2022-09-14T08:31:23.090Z,74.70
2022-09-14T08:34:02.617Z,75.00
2022-09-14T08:36:35.719Z,72.50
2022-09-14T08:39:03.088Z,70.90
2022-09-14T08:41:44.970Z,70.00
2022-09-14T08:44:11.824Z,71.10
2022-09-14T08:46:50.570Z,69.30
2022-09-14T08:49:46.547Z,67.10
2022-09-14T08:52:41.192Z,68.40
2022-09-14T08:55:33.895Z,66.30
2022-09-14T08:58:03.768Z,65.30
2022-09-14T09:00:51.309Z,64.30
2022-09-14T09:03:24.075Z,62.70
2022-09-14T09:06:16.788Z,61.40
2022-09-14T09:08:55.510Z,62.50
2022-09-14T09:11:27.230Z,66.60
2022-09-14T09:13:55.786Z,63.50
2022-09-14T09:16:26.051Z,61.50
2022-09-14T09:19:11.061Z,64.80
2022-09-14T09:21:46.037Z,64.30
2022-09-14T09:24:37.288Z,61.40
2022-09-14T09:27:13.979Z,58.70
2022-09-14T09:29:41.035Z,58.80
2022-09-14T09:32:20.923Z,60.00
2022-09-14T09:34:56.636Z,57.00
2022-09-14T09:37:46.637Z,56.60
2022-09-14T09:40:38.089Z,56.80
2022-09-14T09:43:08.955Z,56.90
2022-09-14T09:46:07.001Z,55.70
2022-09-14T09:48:45.256Z,56.50
2022-09-14T09:51:24.226Z,56.40
2022-09-14T09:53:54.120Z,56.60
2022-09-14T09:56:25.971Z,57.80
2022-09-14T09:58:53.034Z,56.70
2022-09-14T10:01:35.832Z,57.50
2022-09-14T10:04:14.655Z,58.70
2022-09-14T10:06:44.191Z,61.40
2022-09-14T10:09:24.141Z,60.50
2022-09-14T10:12:02.613Z,58.50
2022-09-14T10:14:35.561Z,58.10
2022-09-14T10:17:21.346Z,58.20
2022-09-14T10:19:54.026Z,58.60
2022-09-14T10:22:30.067Z,58.30
2022-09-14T10:24:57.134Z,58.70
2022-09-14T10:27:39.805Z,56.40
2022-09-14T10:30:15.598Z,56.10
2022-09-14T10:33:06.221Z,56.60
2022-09-14T10:35:59.332Z,56.00
2022-09-14T10:38:46.599Z,56.00
2022-09-14T10:41:31.609Z,54.80
2022-09-14T10:44:02.378Z,53.70
2022-09-14T10:47:05.099Z,55.60
2022-09-14T10:49:41.052Z,56.10
2022-09-14T10:52:31.612Z,55.70
2022-09-14T10:55:32.237Z,57.20
2022-09-14T10:58:04.944Z,56.30
2022-09-14T11:00:51.906Z,55.80
2022-09-14T11:03:52.033Z,53.90
2022-09-14T11:06:45.849Z,55.70
2022-09-14T11:09:26.623Z,54.90
2022-09-14T11:12:19.419Z,55.90
2022-09-14T11:15:35.757Z,56.40
2022-09-14T11:18:24.538Z,56.20
2022-09-14T11:20:57.427Z,56.10
2022-09-14T11:23:43.979Z,55.30
2022-09-14T11:26:16.599Z,55.30
2022-09-14T11:29:03.023Z,54.60
2022-09-14T11:31:38.770Z,53.90
2022-09-14T11:34:33.066Z,56.70
2022-09-14T11:37:19.193Z,56.10
2022-09-14T11:39:58.602Z,55.60
2022-09-14T11:42:44.361Z,56.80
2022-09-14T11:45:20.966Z,57.40
2022-09-14T11:48:41.974Z,55.80
2022-09-14T11:51:15.522Z,55.00
2022-09-14T11:53:44.792Z,53.50
2022-09-14T11:56:26.455Z,54.40
2022-09-14T11:58:56.383Z,53.70
2022-09-14T12:01:28.634Z,52.60
2022-09-14T12:04:01.484Z,52.60
2022-09-14T12:06:35.696Z,53.90
2022-09-14T12:09:20.112Z,53.90
2022-09-14T12:11:49.830Z,52.60
2022-09-14T12:14:29.647Z,51.50
2022-09-14T12:17:39.462Z,50.90
2022-09-14T12:20:38.748Z,53.20
2022-09-14T12:23:32.013Z,50.90
2022-09-14T12:26:11.308Z,51.80
2022-09-14T12:28:40.094Z,51.90
2022-09-14T12:31:09.232Z,50.70
2022-09-14T12:33:42.632Z,50.30
2022-09-14T12:36:14.614Z,50.90
2022-09-14T12:39:03.122Z,51.00
2022-09-14T12:41:36.210Z,52.50
2022-09-14T12:44:05.348Z,50.10
2022-09-14T12:46:38.604Z,51.80
2022-09-14T12:49:25.389Z,51.00
2022-09-14T12:51:52.677Z,50.30
2022-09-14T12:54:50.543Z,51.20
2022-09-14T12:57:39.706Z,51.70
2022-09-14T13:00:20.038Z,53.10
2022-09-14T13:03:01.243Z,51.40
2022-09-14T13:05:31.970Z,52.00
2022-09-14T13:07:59.911Z,53.10
2022-09-14T13:10:39.766Z,53.90
2022-09-14T13:13:16.639Z,55.30
2022-09-14T13:15:55.775Z,55.10
2022-09-14T13:18:22.851Z,55.40
2022-09-14T13:20:52.334Z,55.70
2022-09-14T13:23:24.343Z,55.60
2022-09-14T13:25:51.391Z,55.40
2022-09-14T13:28:20.190Z,54.70
2022-09-14T13:30:58.431Z,52.90
2022-09-14T13:33:25.777Z,54.50
2022-09-14T13:35:55.250Z,52.40
2022-09-14T13:38:36.813Z,53.60
2022-09-14T13:41:15.085Z,52.60
2022-09-14T13:43:47.302Z,53.90
2022-09-14T13:46:20.129Z,53.60
2022-09-14T13:48:47.609Z,52.60
2022-09-14T13:51:16.024Z,51.90
2022-09-14T13:54:15.770Z,50.70
2022-09-14T13:56:42.845Z,51.40
2022-09-14T13:59:12.707Z,51.90
2022-09-14T14:02:00.876Z,53.00
2022-09-14T14:04:37.171Z,52.70
2022-09-14T14:07:14.429Z,52.70
2022-09-14T14:10:03.688Z,52.20
2022-09-14T14:12:39.323Z,51.40
2022-09-14T14:15:27.140Z,51.10
2022-09-14T14:17:55.537Z,51.50
2022-09-14T14:20:37.199Z,50.80
2022-09-14T14:23:13.003Z,52.60
2022-09-14T14:25:52.020Z,53.10
2022-09-14T14:28:23.169Z,51.80
2022-09-14T14:30:52.502Z,51.00
2022-09-14T14:33:21.232Z,50.60
2022-09-14T14:35:53.764Z,49.70
2022-09-14T14:38:23.419Z,49.90
2022-09-14T14:40:52.430Z,48.30
2022-09-14T14:43:24.919Z,48.90
2022-09-14T14:45:58.974Z,50.00
2022-09-14T14:48:26.919Z,49.00
2022-09-14T14:50:55.573Z,48.70
2022-09-14T14:53:25.919Z,49.20
2022-09-14T14:55:54.281Z,50.00
2022-09-14T14:58:21.932Z,49.90
2022-09-14T15:00:49.377Z,50.80
2022-09-14T15:03:17.348Z,48.90
2022-09-14T15:05:45.747Z,49.10
2022-09-14T15:08:15.356Z,49.70
2022-09-14T15:10:42.689Z,50.20
2022-09-14T15:13:12.261Z,50.20
2022-09-14T15:15:41.896Z,51.40
2022-09-14T15:18:08.922Z,50.30
2022-09-14T15:20:35.828Z,50.60
2022-09-14T15:23:02.890Z,50.70
2022-09-14T15:25:29.874Z,51.10
2022-09-14T15:27:56.829Z,50.70
2022-09-14T15:30:23.704Z,51.10
2022-09-14T15:32:51.092Z,50.40
2022-09-14T15:35:18.044Z,50.40
2022-09-14T15:37:47.441Z,50.60
2022-09-14T15:40:14.428Z,50.40
2022-09-14T15:42:42.605Z,50.00
2022-09-14T15:45:11.330Z,49.60
2022-09-14T15:47:38.266Z,50.00
2022-09-14T15:50:06.093Z,50.70
2022-09-14T15:52:36.040Z,51.10
2022-09-14T15:55:07.438Z,51.10
2022-09-14T15:57:36.102Z,50.50
2022-09-14T16:00:07.617Z,50.60
2022-09-14T16:02:41.215Z,50.60
2022-09-14T16:05:08.548Z,50.60
2022-09-14T16:07:36.587Z,50.60
2022-09-14T16:10:03.789Z,51.30
2022-09-14T16:12:30.848Z,51.20
2022-09-14T16:14:57.995Z,51.50
2022-09-14T16:17:25.018Z,52.10
2022-09-14T16:19:54.471Z,51.60
2022-09-14T16:22:21.785Z,51.60
2022-09-14T16:24:48.944Z,52.30
2022-09-14T16:27:16.289Z,52.60
2022-09-14T16:29:43.582Z,51.90
2022-09-14T16:32:11.833Z,53.20
2022-09-14T16:34:38.647Z,52.90
2022-09-14T16:37:05.571Z,53.90
2022-09-14T16:39:34.905Z,53.20
2022-09-14T16:42:02.505Z,53.50
2022-09-14T16:44:29.833Z,52.90
2022-09-14T16:46:58.921Z,53.40
2022-09-14T16:49:27.788Z,53.20
2022-09-14T16:51:56.347Z,53.20
2022-09-14T16:54:25.474Z,53.30
2022-09-14T16:56:56.719Z,53.10
2022-09-14T16:59:23.928Z,53.60
2022-09-14T17:01:54.662Z,53.50
2022-09-14T17:04:23.065Z,53.60
2022-09-14T17:06:51.590Z,53.90
2022-09-14T17:09:24.131Z,54.30
2022-09-14T17:11:51.898Z,54.50
2022-09-14T17:14:21.645Z,54.30
2022-09-14T17:16:49.341Z,55.00
2022-09-14T17:19:17.348Z,55.50
2022-09-14T17:21:46.466Z,55.90
2022-09-14T17:24:16.962Z,55.60
2022-09-14T17:26:44.415Z,55.70
2022-09-14T17:29:12.111Z,56.50
2022-09-14T17:31:41.409Z,56.80
2022-09-14T17:34:10.399Z,56.60
2022-09-14T17:36:38.729Z,57.80
2022-09-14T17:39:11.662Z,58.40
2022-09-14T17:41:41.031Z,58.70
2022-09-14T17:44:10.360Z,58.10
2022-09-14T17:46:44.447Z,58.50
2022-09-14T17:49:16.054Z,58.60
2022-09-14T17:51:45.155Z,58.90
2022-09-14T17:54:12.771Z,58.80
2022-09-14T17:56:48.959Z,58.80
2022-09-14T17:59:20.742Z,59.10
2022-09-14T18:01:49.248Z,58.80
2022-09-14T18:04:16.848Z,60.60
2022-09-14T18:06:46.822Z,60.20
2022-09-14T18:09:20.226Z,61.00
2022-09-14T18:11:49.030Z,62.10
2022-09-14T18:14:16.818Z,62.60
2022-09-14T18:16:44.769Z,63.90
2022-09-14T18:19:14.483Z,63.90
2022-09-14T18:21:42.007Z,64.00
2022-09-14T18:24:10.810Z,63.60
2022-09-14T18:26:40.988Z,63.40
2022-09-14T18:29:08.122Z,62.30
2022-09-14T18:31:35.076Z,62.00
2022-09-14T18:34:02.480Z,61.70
2022-09-14T18:36:30.150Z,62.30
2022-09-14T18:39:03.234Z,61.80
2022-09-14T18:41:32.422Z,61.80
2022-09-14T18:44:00.405Z,61.90
2022-09-14T18:46:28.697Z,62.50
2022-09-14T18:48:58.168Z,62.30
2022-09-14T18:51:26.679Z,62.20
2022-09-14T18:54:04.190Z,62.40
2022-09-14T18:56:34.960Z,62.40
2022-09-14T18:59:04.120Z,62.70
2022-09-14T19:01:32.604Z,62.60
2022-09-14T19:04:00.079Z,62.70
2022-09-14T19:06:27.043Z,62.60
2022-09-14T19:08:53.899Z,62.70
2022-09-14T19:11:23.309Z,62.80
2022-09-14T19:13:56.672Z,63.30
2022-09-14T19:16:23.729Z,64.80
2022-09-14T19:18:50.715Z,64.50
2022-09-14T19:21:27.157Z,65.60
2022-09-14T19:24:03.122Z,66.20
2022-09-14T19:26:32.841Z,65.60
2022-09-14T19:29:03.357Z,66.90
2022-09-14T19:31:31.184Z,65.80
2022-09-14T19:33:59.499Z,65.80
2022-09-14T19:36:27.646Z,65.20
2022-09-14T19:38:59.590Z,65.40
2022-09-14T19:41:26.580Z,66.00
2022-09-14T19:43:53.420Z,66.00
2022-09-14T19:46:23.400Z,66.80
2022-09-14T19:48:51.825Z,66.90
2022-09-14T19:51:22.062Z,67.60
2022-09-14T19:53:52.149Z,67.30
2022-09-14T19:56:21.892Z,67.80
2022-09-14T19:58:50.575Z,66.60
2022-09-14T20:01:19.182Z,67.10
2022-09-14T20:03:47.392Z,65.90
2022-09-14T20:06:23.411Z,66.60
2022-09-14T20:08:52.507Z,65.80
2022-09-14T20:11:23.351Z,66.50
2022-09-14T20:13:53.017Z,67.70
2022-09-14T20:16:25.826Z,67.20
2022-09-14T20:18:52.890Z,67.50
2022-09-14T20:21:22.308Z,67.80
2022-09-14T20:24:14.764Z,68.40
2022-09-14T20:26:42.766Z,68.10
2022-09-14T20:29:10.189Z,68.10
2022-09-14T20:31:38.081Z,67.60
2022-09-14T20:34:05.282Z,68.30
2022-09-14T20:36:32.962Z,67.50
2022-09-14T20:39:00.091Z,67.80
2022-09-14T20:41:33.228Z,67.80
2022-09-14T20:44:00.521Z,67.90
2022-09-14T20:46:38.532Z,68.00
2022-09-14T20:49:08.491Z,68.40
2022-09-14T20:51:36.661Z,68.10
2022-09-14T20:54:06.084Z,68.50
2022-09-14T20:56:34.764Z,68.10
2022-09-14T20:59:04.524Z,68.10
2022-09-14T21:01:35.734Z,68.30
2022-09-14T21:04:09.341Z,68.40
2022-09-14T21:06:39.292Z,68.40
2022-09-14T21:09:07.897Z,68.30
2022-09-14T21:11:35.654Z,68.40
2022-09-14T21:14:04.455Z,68.70
2022-09-14T21:16:34.461Z,69.00
2022-09-14T21:19:04.596Z,69.20
2022-09-14T21:21:31.949Z,69.30
2022-09-14T21:24:00.215Z,69.50
2022-09-14T21:26:29.037Z,69.70
2022-09-14T21:28:58.292Z,69.50
2022-09-14T21:31:29.986Z,69.70
2022-09-14T21:33:59.290Z,69.90
2022-09-14T21:36:31.578Z,69.90
2022-09-14T21:38:59.983Z,70.30
2022-09-14T21:41:30.058Z,70.50
2022-09-14T21:43:57.308Z,70.40
2022-09-14T21:46:25.261Z,70.90
2022-09-14T21:48:52.890Z,70.60
2022-09-14T21:51:27.363Z,70.90
2022-09-14T21:53:56.736Z,71.00
2022-09-14T21:56:27.479Z,71.30
2022-09-14T21:58:56.907Z,71.30
2022-09-14T22:01:24.527Z,71.10
2022-09-14T22:03:53.163Z,71.80
2022-09-14T22:06:22.492Z,71.90
2022-09-14T22:08:50.367Z,72.50
2022-09-14T22:11:23.696Z,72.80
2022-09-14T22:13:59.469Z,73.60
2022-09-14T22:16:27.965Z,73.30
2022-09-14T22:18:57.736Z,73.30
2022-09-14T22:21:27.210Z,73.50
2022-09-14T22:23:57.444Z,74.10
2022-09-14T22:26:25.795Z,74.30
2022-09-14T22:28:56.713Z,74.80
2022-09-14T22:31:24.377Z,74.60
2022-09-14T22:33:53.332Z,75.10
2022-09-14T22:36:20.242Z,75.40
2022-09-14T22:38:47.304Z,75.40
2022-09-14T22:41:20.687Z,76.40
2022-09-14T22:43:47.701Z,76.40
2022-09-14T22:46:16.416Z,77.40
2022-09-14T22:48:57.846Z,77.70
2022-09-14T22:51:27.590Z,78.80
2022-09-14T22:53:54.923Z,78.30
2022-09-14T22:56:31.296Z,78.70
2022-09-14T22:58:59.239Z,80.00
2022-09-14T23:01:31.785Z,80.10
2022-09-14T23:04:01.974Z,81.10
2022-09-14T23:06:31.841Z,81.10
2022-09-14T23:09:00.484Z,81.60
2022-09-14T23:11:29.035Z,82.70
2022-09-14T23:13:57.756Z,83.00
2022-09-14T23:16:26.584Z,83.60
2022-09-14T23:18:55.396Z,84.40
2022-09-14T23:21:22.804Z,85.80
2022-09-14T23:23:58.587Z,86.60
2022-09-14T23:26:26.921Z,87.90
2022-09-14T23:28:56.011Z,88.90
2022-09-14T23:31:23.444Z,88.80
2022-09-14T23:33:56.180Z,88.90
2022-09-14T23:36:24.254Z,90.30
2022-09-14T23:38:51.966Z,90.70
2022-09-14T23:41:20.651Z,90.80
2022-09-14T23:43:48.090Z,91.00
2022-09-14T23:46:15.918Z,91.00
2022-09-14T23:48:43.475Z,91.20
2022-09-14T23:51:11.900Z,91.30
2022-09-14T23:53:39.771Z,91.20
2022-09-14T23:56:07.786Z,91.20
2022-09-14T23:58:35.429Z,91.30
